Airfield :
LOGIN :

Register | Disclaimer

   EN    FR    IT 

 










Legend :    VFR   Marginal VFR   IFR   Intensive IFR   Very Intensive IFR
Visi :
Ceiling :
>= 8 km
>= 3000ft
5 to 8 km
1000 to 3000 ft
1500m to 5 km
500 to 1000 ft
800 to 1500m
200 to 500 ft
< 800m
< 200 ft
Symbols :   Thunderstorms  Fog  Heavy snow  Heavy precipitations  Wind > 20 kt
SIGMETs :     Misc.  Thunderstorms  Icing  Turbulence  Mountain Waves  Volcanic Ashes






- Airport Elevation : 2776 ft
- IATA code : VLL


LEVD - Valladolid

CURRENT METAR :
  • 080430Z AUTO 14002KT 9999 BKN014 OVC024 10/10 Q1023

EXPIRED METARs :
  • 080400Z AUTO 16003KT 9999 OVC022 10/09 Q1023
  • 080330Z AUTO 18003KT 150V210 9999 BKN023 09/09 Q1023
  • 080300Z AUTO 17004KT 140V200 CAVOK 09/08 Q1023
  • 080230Z AUTO 19006KT 9999 FEW021 10/09 Q1023
  • 080200Z AUTO 18006KT CAVOK 10/10 Q1023

TAF TAF LEVD
Valid from the 08 at 00:00 until the 09 at 00:00 UTC


072300Z 0800/0824 VRB05KT 9999 SCT030 TX19/0815Z TN05/0806Z
TEMPO 0800/0810 3000 BR BKN005
PROB40
TEMPO 0802/0809 0400 FG VV001
PROB30
TEMPO 0813/0818 SHRA FEW030TCU



MET'MAP, your aeronautical weather chart ! - Copyright ORBIFLY December 2007 - Disclaimer

ORBIFLY MET'MAP TEAM :

Programming & Development : Alexandra Zaïnal
Concept & original design : Baudouin d'Aumeries
Assistance for programming : Marc-Olivier Méhu
Technical & hardware support : Manuel Goepfert

Contact : metmap@orbifly.com




SOURCES & CREDITS :

   NOAA